createdAt,value
2023-04-27T00:01:14.588Z,3623
2023-04-27T00:11:14.552Z,3620
2023-04-27T00:21:14.479Z,3623
2023-04-27T00:31:14.515Z,3620
2023-04-27T00:41:14.942Z,3620
2023-04-27T00:51:14.451Z,3620
2023-04-27T01:01:14.947Z,3615
2023-04-27T01:11:14.449Z,3615
2023-04-27T01:21:14.410Z,3618
2023-04-27T01:31:14.420Z,3620
2023-04-27T01:41:14.404Z,3620
2023-04-27T01:51:14.396Z,3620
2023-04-27T02:01:14.404Z,3623
2023-04-27T02:11:14.400Z,3623
2023-04-27T02:21:14.335Z,3620
2023-04-27T02:31:14.849Z,3618
2023-04-27T02:41:14.345Z,3620
2023-04-27T02:51:14.312Z,3620
2023-04-27T03:01:14.347Z,3620
2023-04-27T03:11:14.294Z,3620
2023-04-27T03:21:14.241Z,3620
2023-04-27T03:31:14.291Z,3620
2023-04-27T03:41:14.281Z,3620
2023-04-27T03:51:14.198Z,3620
2023-04-27T04:01:14.260Z,3620
2023-04-27T04:11:14.634Z,3615
2023-04-27T04:21:14.178Z,3615
2023-04-27T04:31:14.217Z,3620
2023-04-27T04:41:14.208Z,3620
2023-04-27T04:51:14.153Z,3620
2023-04-27T05:01:14.221Z,3620
2023-04-27T05:11:14.163Z,3620
2023-04-27T05:21:14.534Z,3615
2023-04-27T05:31:14.197Z,3615
2023-04-27T05:41:14.116Z,3618
2023-04-27T05:51:14.095Z,3618
2023-04-27T06:01:14.122Z,3620
2023-04-27T06:11:14.069Z,3620
2023-04-27T06:21:14.044Z,3620
2023-04-27T06:31:14.183Z,3620
2023-04-27T06:41:14.052Z,3623
2023-04-27T06:51:13.995Z,3623
2023-04-27T07:01:14.068Z,3623
2023-04-27T07:11:13.989Z,3620
2023-04-27T07:21:14.381Z,3618
2023-04-27T07:31:15.961Z,3610
2023-04-27T07:41:13.965Z,3615
2023-04-27T07:51:13.935Z,3620
2023-04-27T08:01:14.359Z,3620
2023-04-27T08:11:13.967Z,3620
2023-04-27T08:21:13.864Z,3623
2023-04-27T08:31:13.893Z,3623
2023-04-27T08:41:21.451Z,3626
2023-04-27T08:51:13.806Z,3626
2023-04-27T09:01:13.863Z,3626
2023-04-27T09:11:14.194Z,3620
2023-04-27T09:21:13.799Z,3623
2023-04-27T09:31:13.767Z,3626
2023-04-27T09:41:13.764Z,3626
2023-04-27T09:51:13.679Z,3626
2023-04-27T10:01:13.760Z,3626
2023-04-27T10:11:13.666Z,3626
2023-04-27T10:21:13.673Z,3626
2023-04-27T10:31:13.696Z,3626
2023-04-27T10:41:13.645Z,3626
2023-04-27T11:01:13.634Z,3626
2023-04-27T11:11:16.568Z,3623
2023-04-27T11:21:13.576Z,3626
2023-04-27T11:31:13.546Z,3626
2023-04-27T11:41:13.540Z,3626
2023-04-27T11:51:13.467Z,3626
2023-04-27T12:01:13.482Z,3626
2023-04-27T12:11:13.493Z,3626
2023-04-27T12:21:13.441Z,3626
2023-04-27T12:31:13.480Z,3626
2023-04-27T12:41:13.449Z,3626
2023-04-27T12:51:13.408Z,3626
2023-04-27T13:01:13.430Z,3626
2023-04-27T13:11:13.416Z,3626
2023-04-27T13:21:13.341Z,3626
2023-04-27T13:31:13.773Z,3626
2023-04-27T13:41:13.316Z,3626
2023-04-27T13:51:13.661Z,3626
2023-04-27T14:01:13.345Z,3626
2023-04-27T14:11:13.274Z,3626
2023-04-27T14:21:13.208Z,3626
2023-04-27T14:31:13.236Z,3626
2023-04-27T14:41:13.187Z,3626
2023-04-27T14:51:13.155Z,3626
2023-04-27T15:01:13.277Z,3626
2023-04-27T15:11:13.196Z,3626
2023-04-27T15:21:13.131Z,3626
2023-04-27T15:31:13.218Z,3626
2023-04-27T15:41:13.117Z,3626
2023-04-27T15:51:13.070Z,3626
2023-04-27T16:01:13.110Z,3626
2023-04-27T16:11:13.048Z,3626
2023-04-27T16:21:12.978Z,3626
2023-04-27T16:31:13.025Z,3626
2023-04-27T16:41:13.400Z,3626
2023-04-27T16:51:12.950Z,3613
2023-04-27T17:01:12.958Z,3626
2023-04-27T17:11:12.920Z,3626
2023-04-27T17:21:12.890Z,3626
2023-04-27T17:31:12.961Z,3626
2023-04-27T17:41:12.879Z,3626
2023-04-27T17:51:12.824Z,3626
2023-04-27T18:01:12.941Z,3626
2023-04-27T18:11:12.845Z,3626
2023-04-27T18:21:12.805Z,3626
2023-04-27T18:31:12.824Z,3626
2023-04-27T18:41:12.782Z,3628
2023-04-27T18:51:12.702Z,3626
2023-04-27T19:01:14.402Z,3626
2023-04-27T19:11:12.724Z,3626
2023-04-27T19:21:12.933Z,3628
2023-04-27T19:31:12.739Z,3626
2023-04-27T19:41:12.703Z,3626
2023-04-27T19:51:13.053Z,3626
2023-04-27T20:01:13.590Z,3626
2023-04-27T20:11:12.598Z,3626
2023-04-27T20:21:12.623Z,3626
2023-04-27T20:31:12.654Z,3626
2023-04-27T20:41:12.988Z,3623
2023-04-27T20:51:12.530Z,3623
2023-04-27T21:01:13.028Z,3623
2023-04-27T21:11:12.550Z,3626
2023-04-27T21:21:12.502Z,3626
2023-04-27T21:31:12.539Z,3626
2023-04-27T21:41:12.465Z,3626
2023-04-27T21:51:12.425Z,3626
2023-04-27T22:01:12.467Z,3626
2023-04-27T22:11:12.441Z,3626
2023-04-27T22:21:12.362Z,3626
2023-04-27T22:31:12.419Z,3626
2023-04-27T22:41:12.335Z,3620
2023-04-27T22:51:12.347Z,3626
2023-04-27T23:01:12.402Z,3620
2023-04-27T23:11:12.328Z,3623
2023-04-27T23:21:12.300Z,3626
2023-04-27T23:31:12.340Z,3626
2023-04-27T23:41:12.242Z,3620
2023-04-27T23:51:12.213Z,3623
